ENFB/FBU METAR and TAF weather

Enter ICAO airport designator
Station Type Date Time Source
ENFB METAR 2018/10/19 15:20 UTC NOAA

ENFB 191520Z AUTO 20029KT 2900NDV -RA BR BKN006/// 09/09 Q1013 RERA W///S5


Station Type Date Time Source
ENFB Decoded METAR 2018/10/19 15:20 UTC NOAA

Oslo / Fornebu, Norway (ENFB) 59-54N 010-38E 17M
Oct 19, 2018 - 11:20 AM EDT / 2018.10.19 1520 UTC
Wind: from the SSW (200 degrees) at 33 MPH (29 KT):0
Sky conditions: mostly cloudy
Weather: light rain; mist
Temperature: 48 F (9 C)
Dew Point: 48 F (9 C)
Relative Humidity: 100%
Pressure (altimeter): 29.91 in. Hg (1013 hPa)
ob: ENFB 191520Z AUTO 20029KT 2900NDV -RA BR BKN006/// 09/09 Q1013 RERA W///S5
cycle: 15

Station Type Date Time Source
ENFB TAF UTC NOAA

Error!


Example: see airport list